Las horas y fechas están en horario UTC
Sumar 1 hora en el horario de invierno y 2 en el de verano

Informes METAR cercanos

 

LEZL - Sevilla (civ/Mil, Spain
Distance from station: NNE 24km
Actualización: 19/08/2017 14:30
Despejado
Despejado
 Viento del OSO
Viento: OSO 6 km/h
Temperatura: 37°C
Rocío: 13°C
Humedad: 24%
Barómetro: 1013 hPa
Resumen: Despejado
Visibility: greater than 10 km
2017/08/19 12:30 LEZL 191230Z 24003KT CAVOK 37/13 Q1013 NOSIG
LEMO - Moron (sp-Usafb), Spain
Distance from station: E 38km
Actualización: 19/08/2017 14:00
Despejado
Despejado
 Viento del O
Viento: O 7 km/h
Temperatura: 35°C
Rocío: 15°C
Humedad: 30%
Barómetro: 1014 hPa
Resumen: Despejado
Visibility: greater than 10 km
2017/08/19 12:00 LEMO 191200Z 27004KT CAVOK 35/15 Q1014 NOSIG
LEJR - Jerez (civ/Mil), Spain
Distance from station: S 53km
Actualización: 19/08/2017 14:30
Despejado
Despejado
 Viento del SO
Viento: SO 19 km/h
Temperatura: 36°C
Rocío: 18°C
Humedad: 34%
Barómetro: 1014 hPa
Resumen: Despejado
Visibility: greater than 10 km
2017/08/19 12:30 LEJR 191230Z 23010KT 200V260 CAVOK 36/18 Q1014
 
LERT - Rota Naval Stati, Spain
Distance from station: SSO 71km
Actualización: 19/08/2017 14:00
Despejado
Despejado
 Viento del SO
Viento: SO 22 km/h
Temperatura: 27°C
Heat Index: 29°C
Rocío: 22°C
Humedad: 74%
Barómetro: 1015 hPa
Resumen: Despejado
Visibility: greater than 10 km
2017/08/19 12:00 LERT 191200Z 23012KT CAVOK 27/22 Q1015 NOSIG
LEBA - Cordoba Airport, Spain
Distance from station: ENE 128km
Actualización: 19/08/2017 14:30
Despejado
Despejado
 Viento del ONO
Viento: ONO 2 km/h
Temperatura: 37°C
Rocío: 12°C
Humedad: 22%
Barómetro: 1014 hPa
Resumen: Despejado
Visibility: greater than 10 km
2017/08/19 12:30 LEBA 191230Z 29001KT CAVOK 37/12 Q1014
LXGB - Gibraltar (civ/M, Gibraltar
Distance from station: SSE 137km
Actualización: 19/08/2017 13:50
Muy nuboso
Muy nuboso
 Viento del E
Viento: E 19 km/h
Temperatura: 26°C
Rocío: 22°C
Humedad: 79%
Barómetro: 1016 hPa
Clouds: Muy nuboso
Visibility: 10 km
Cloud details: Few Clouds 213 m
Muy nuboso 335 m
2017/08/19 11:50 LXGB 191150Z 10010KT 9999 FEW007 BKN011 26/22 Q1016 TEMPO FEW011
 
LEMG - Malaga (civ/Mil), Spain
Distance from station: ESE 150km
Actualización: 19/08/2017 14:30
Few Clouds
Few Clouds
 Viento del SE
Viento: SE 15 km/h
Temperatura: 28°C
Heat Index: 30°C
Rocío: 22°C
Humedad: 70%
Barómetro: 1016 hPa
Clouds: Few Clouds
Visibility: 10 km
Cloud details: Few Clouds 610 m
2017/08/19 12:30 LEMG 191230Z 14008KT 100V170 9999 FEW020 28/22 Q1016 NOSIG
GMTT - Tangier/Boukhalf, Morocco
Distance from station: S 169km
Actualización: 19/08/2017 14:30
Few Clouds
Few Clouds
 Viento del ENE
Viento: ENE 28 km/h
Temperatura: 31°C
Heat Index: 32°C
Rocío: 18°C
Humedad: 46%
Barómetro: 1014 hPa
Clouds: Few Clouds
Visibility: 10 km
Cloud details: Few Clouds 488 m
2017/08/19 12:30 GMTT 191230Z 07015KT 9999 FEW016 31/18 Q1014 NOSIG
LPFR - Faro, Portugal
Distance from station: O 172km
Actualización: 19/08/2017 14:30
Despejado
Despejado
 Viento del SO
Viento: SO 11 km/h
Temperatura: 29°C
Heat Index: 29°C
Rocío: 16°C
Humedad: 45%
Barómetro: 1014 hPa
Resumen: Despejado
Visibility: greater than 10 km
2017/08/19 12:30 LPFR 191230Z 23006KT 190V260 CAVOK 29/16 Q1014
 
LPBJ - Beja (por/Ger-Af, Portugal
Distance from station: ONO 192km
Actualización: 19/08/2017 14:00
Despejado
Despejado
 Viento del N
Viento: N 11 km/h
Temperatura: 34°C
Rocío: 12°C
Humedad: 26%
Barómetro: 1016 hPa
Resumen: Despejado
Visibility: greater than 10 km
2017/08/19 12:00 LPBJ 191200Z 36006KT 320V070 CAVOK 34/12 Q1016
LEBZ - Talavera Ab/Bada, Spain
Distance from station: NNO 194km
Actualización: 19/08/2017 14:00
Despejado
Despejado
 Viento del ONO
Viento: ONO 7 km/h
Temperatura: 36°C
Rocío: 12°C
Humedad: 23%
Barómetro: 1015 hPa
Resumen: Despejado
Visibility: greater than 10 km
2017/08/19 12:00 LEBZ 191200Z 30004KT 240V030 CAVOK 36/12 Q1015
LEMD - Madrid/Barajas, Spain
Distance from station: NE 415km
Actualización: 19/08/2017 14:30
Despejado
Despejado
 Viento del SSE
Viento: SSE 9 km/h
Temperatura: 33°C
Rocío: 14°C
Humedad: 32%
Barómetro: 1018 hPa
Resumen: Despejado
Visibility: greater than 10 km
2017/08/19 12:30 LEMD 191230Z 15005KT CAVOK 33/14 Q1018 NOSIG